createdAt,value
2017-09-30T00:01:14.640Z,16.07
2017-09-30T00:03:42.949Z,14.45
2017-09-30T00:06:12.934Z,19.67
2017-09-30T00:08:40.477Z,22.58
2017-09-30T00:11:07.987Z,20.40
2017-09-30T00:13:35.874Z,22.15
2017-09-30T00:16:03.383Z,21.50
2017-09-30T00:18:30.934Z,23.93
2017-09-30T00:20:58.475Z,23.40
2017-09-30T00:23:27.127Z,22.35
2017-09-30T00:25:54.689Z,19.90
2017-09-30T00:28:22.399Z,20.67
2017-09-30T00:30:50.140Z,20.87
2017-09-30T00:33:17.660Z,20.73
2017-09-30T00:35:45.731Z,23.00
2017-09-30T00:38:13.286Z,19.97
2017-09-30T00:40:40.867Z,22.47
2017-09-30T00:43:08.438Z,22.10
2017-09-30T00:45:36.327Z,22.47
2017-09-30T00:48:04.630Z,21.83
2017-09-30T00:50:32.198Z,23.38
2017-09-30T00:52:59.736Z,20.60
2017-09-30T00:55:27.270Z,20.00
2017-09-30T00:57:55.044Z,22.10
2017-09-30T01:00:22.576Z,20.30
2017-09-30T01:02:50.895Z,25.73
2017-09-30T01:05:18.615Z,21.58
2017-09-30T01:07:46.136Z,23.08
2017-09-30T01:10:13.674Z,20.97
2017-09-30T01:12:47.735Z,18.60
2017-09-30T01:15:15.268Z,22.80
2017-09-30T01:17:43.747Z,28.03
2017-09-30T01:20:11.627Z,27.93
2017-09-30T01:22:39.182Z,25.20
2017-09-30T01:25:07.006Z,25.17
2017-09-30T01:27:34.515Z,23.63
2017-09-30T01:30:03.044Z,25.64
2017-09-30T01:32:30.667Z,23.85
2017-09-30T01:34:58.183Z,21.37
2017-09-30T01:37:25.723Z,20.47
2017-09-30T01:39:53.281Z,17.77
2017-09-30T01:42:21.744Z,18.10
2017-09-30T01:44:49.251Z,17.30
2017-09-30T01:47:16.795Z,18.80
2017-09-30T01:49:44.345Z,19.47
2017-09-30T01:52:11.846Z,20.88
2017-09-30T01:54:39.479Z,18.42
2017-09-30T01:57:07.039Z,19.53
2017-09-30T01:59:34.557Z,22.23
2017-09-30T02:02:02.098Z,21.27
2017-09-30T02:04:30.424Z,24.17
2017-09-30T02:06:57.948Z,23.33
2017-09-30T02:09:26.701Z,21.33
2017-09-30T02:11:54.986Z,20.38
2017-09-30T02:14:22.575Z,22.70
2017-09-30T02:16:50.120Z,24.13
2017-09-30T02:19:17.671Z,24.23
2017-09-30T02:21:45.219Z,25.47
2017-09-30T02:24:12.812Z,25.00
2017-09-30T02:26:40.336Z,26.17
2017-09-30T02:29:12.868Z,27.17
2017-09-30T02:31:40.478Z,24.80
2017-09-30T02:34:08.018Z,23.48
2017-09-30T02:36:35.532Z,20.50
2017-09-30T02:39:04.441Z,21.40
2017-09-30T02:41:31.986Z,16.17
2017-09-30T02:44:03.894Z,17.17
2017-09-30T02:46:31.391Z,14.60
2017-09-30T02:48:59.701Z,16.50
2017-09-30T02:51:27.254Z,18.83
2017-09-30T02:53:55.884Z,19.60
2017-09-30T02:56:23.431Z,21.80
2017-09-30T02:58:50.947Z,25.55
2017-09-30T03:01:18.470Z,24.65
2017-09-30T03:03:46.002Z,22.87
2017-09-30T03:06:13.839Z,22.13
2017-09-30T03:08:42.006Z,20.77
2017-09-30T03:11:09.528Z,22.15
2017-09-30T03:13:37.051Z,21.60
2017-09-30T03:16:08.687Z,23.93
2017-09-30T03:18:37.290Z,22.92
2017-09-30T03:21:04.823Z,21.77
2017-09-30T03:23:32.335Z,24.15
2017-09-30T03:25:59.872Z,25.03
2017-09-30T03:28:27.380Z,26.10
2017-09-30T03:31:05.375Z,24.43
2017-09-30T03:33:33.684Z,22.97
2017-09-30T03:36:01.252Z,23.33
2017-09-30T03:38:28.814Z,23.83
2017-09-30T03:40:57.304Z,22.52
2017-09-30T03:43:24.851Z,21.47
2017-09-30T03:45:55.735Z,22.50
2017-09-30T03:48:23.344Z,22.97
2017-09-30T03:50:50.855Z,23.10
2017-09-30T03:53:19.174Z,22.77
2017-09-30T03:55:46.937Z,20.40
2017-09-30T03:58:14.722Z,24.10
2017-09-30T04:00:45.660Z,23.13
2017-09-30T04:03:16.574Z,17.58
2017-09-30T04:05:44.085Z,21.60
2017-09-30T04:08:11.642Z,19.60
2017-09-30T04:10:39.197Z,17.50
2017-09-30T04:13:06.712Z,17.70
2017-09-30T04:15:48.083Z,20.70
2017-09-30T04:18:15.601Z,18.53
2017-09-30T04:20:43.263Z,21.73
2017-09-30T04:23:10.771Z,20.10
2017-09-30T04:25:38.367Z,17.67
2017-09-30T04:28:05.893Z,17.17
2017-09-30T04:30:37.787Z,16.20
2017-09-30T04:33:08.283Z,18.90
2017-09-30T04:35:35.798Z,17.00
2017-09-30T04:38:04.728Z,16.43
2017-09-30T04:40:33.007Z,16.80
2017-09-30T04:43:00.521Z,21.73
2017-09-30T04:45:28.055Z,24.80
2017-09-30T04:47:59.451Z,25.23
2017-09-30T04:50:27.235Z,23.73
2017-09-30T04:52:54.743Z,24.90
2017-09-30T04:55:22.541Z,18.35
2017-09-30T04:57:50.091Z,16.83
2017-09-30T05:00:17.594Z,17.07
2017-09-30T05:02:55.900Z,19.13
2017-09-30T05:05:23.610Z,20.05
2017-09-30T05:07:51.155Z,18.60
2017-09-30T05:10:18.686Z,25.90
2017-09-30T05:12:46.200Z,24.20
2017-09-30T05:15:13.763Z,24.13
2017-09-30T05:17:41.328Z,24.85
2017-09-30T05:20:09.315Z,20.90
2017-09-30T05:22:37.680Z,23.02
2017-09-30T05:25:05.209Z,25.20
2017-09-30T05:27:32.751Z,28.07
2017-09-30T05:30:00.323Z,27.30
2017-09-30T05:32:27.832Z,23.60
2017-09-30T05:34:55.351Z,25.37
2017-09-30T05:37:23.670Z,27.00
2017-09-30T05:39:51.215Z,21.50
2017-09-30T05:42:18.889Z,22.62
2017-09-30T05:44:47.323Z,22.90
2017-09-30T05:47:15.379Z,19.90
2017-09-30T05:49:42.988Z,18.02
2017-09-30T05:52:10.500Z,18.93
2017-09-30T05:54:38.935Z,21.03
2017-09-30T05:57:06.542Z,22.30
2017-09-30T05:59:34.877Z,23.77
2017-09-30T06:02:03.312Z,23.10
2017-09-30T06:04:31.784Z,25.45
2017-09-30T06:06:59.603Z,24.65
2017-09-30T06:09:27.125Z,23.38
2017-09-30T06:11:55.414Z,25.83
2017-09-30T06:14:23.419Z,23.50
2017-09-30T06:16:50.934Z,24.75
2017-09-30T06:19:18.564Z,24.90
2017-09-30T06:21:46.127Z,23.33
2017-09-30T06:24:14.766Z,21.07
2017-09-30T06:26:43.924Z,20.77
2017-09-30T06:29:12.220Z,21.13
2017-09-30T06:31:39.724Z,22.08
2017-09-30T06:34:07.544Z,21.10
2017-09-30T06:36:35.086Z,25.75
2017-09-30T06:39:02.660Z,26.00
2017-09-30T06:41:30.180Z,25.90
2017-09-30T06:43:57.699Z,28.67
2017-09-30T06:46:25.778Z,26.77
2017-09-30T06:48:53.286Z,27.57
2017-09-30T06:51:21.427Z,26.50
2017-09-30T06:53:49.003Z,25.60
2017-09-30T06:56:16.525Z,25.20
2017-09-30T06:58:44.839Z,27.73
2017-09-30T07:01:12.355Z,26.30
2017-09-30T07:03:44.351Z,28.35
2017-09-30T07:06:11.955Z,29.70
2017-09-30T07:08:39.818Z,26.47
2017-09-30T07:11:07.325Z,27.23
2017-09-30T07:13:35.681Z,26.10
2017-09-30T07:16:03.191Z,26.42
2017-09-30T07:18:33.711Z,27.20
2017-09-30T07:21:01.280Z,26.53
2017-09-30T07:23:29.557Z,26.48
2017-09-30T07:25:57.899Z,26.08
2017-09-30T07:28:25.460Z,26.87
2017-09-30T07:30:53.007Z,27.70
2017-09-30T07:33:20.614Z,25.53
2017-09-30T07:35:48.137Z,26.70
2017-09-30T07:38:15.651Z,26.00
2017-09-30T07:40:43.217Z,23.87
2017-09-30T07:43:10.740Z,25.43
2017-09-30T07:45:39.197Z,25.33
2017-09-30T07:48:06.796Z,23.57
2017-09-30T07:50:34.404Z,23.40
2017-09-30T07:53:01.964Z,25.10
2017-09-30T07:55:29.524Z,24.40
2017-09-30T07:57:57.123Z,24.02
2017-09-30T08:00:24.657Z,23.58
2017-09-30T08:02:52.615Z,24.30
2017-09-30T08:05:20.158Z,22.50
2017-09-30T08:07:47.689Z,21.63
2017-09-30T08:10:15.235Z,22.60
2017-09-30T08:12:43.690Z,20.33
2017-09-30T08:15:11.956Z,21.58
2017-09-30T08:17:39.515Z,20.43
2017-09-30T08:20:07.043Z,21.20
2017-09-30T08:22:34.878Z,22.37
2017-09-30T08:25:02.431Z,20.47
2017-09-30T08:27:29.958Z,20.93
2017-09-30T08:30:00.415Z,21.10
2017-09-30T08:32:27.925Z,22.10
2017-09-30T08:34:56.134Z,19.83
2017-09-30T08:37:23.677Z,22.00
2017-09-30T08:39:51.224Z,21.13
2017-09-30T08:42:18.769Z,19.93
2017-09-30T08:44:46.315Z,19.57
2017-09-30T08:47:13.881Z,18.90
2017-09-30T08:49:41.438Z,18.83
2017-09-30T08:52:10.214Z,17.70
2017-09-30T08:54:37.967Z,18.73
2017-09-30T08:57:06.280Z,18.57
2017-09-30T08:59:35.106Z,18.73
2017-09-30T09:02:02.842Z,16.15
2017-09-30T09:04:30.370Z,16.30
2017-09-30T09:06:59.629Z,18.48
2017-09-30T09:09:27.367Z,16.60
2017-09-30T09:11:54.880Z,15.87
2017-09-30T09:14:24.135Z,18.17
2017-09-30T09:16:51.854Z,16.20
2017-09-30T09:19:19.443Z,17.60
2017-09-30T09:21:49.858Z,16.53
2017-09-30T09:24:19.073Z,18.20
2017-09-30T09:26:46.623Z,14.93
2017-09-30T09:29:14.131Z,16.07
2017-09-30T09:31:41.674Z,15.80
2017-09-30T09:34:09.742Z,14.85
2017-09-30T09:36:41.980Z,14.18
2017-09-30T09:39:09.547Z,13.40
2017-09-30T09:41:37.996Z,12.60
2017-09-30T09:44:05.529Z,11.90
2017-09-30T09:46:33.078Z,15.20
2017-09-30T09:49:00.618Z,12.73
2017-09-30T09:51:39.317Z,11.95
2017-09-30T09:54:06.859Z,11.90
2017-09-30T09:56:34.367Z,10.87
2017-09-30T09:59:01.943Z,12.65
2017-09-30T10:01:29.560Z,10.67
2017-09-30T10:03:57.986Z,12.05
2017-09-30T10:06:25.492Z,11.43
2017-09-30T10:08:53.041Z,10.97
2017-09-30T10:11:20.581Z,11.43
2017-09-30T10:13:48.915Z,10.30
2017-09-30T10:16:16.421Z,11.90
2017-09-30T10:18:44.718Z,12.47
2017-09-30T10:21:12.292Z,11.50
2017-09-30T10:23:39.795Z,13.63
2017-09-30T10:26:08.243Z,14.27
2017-09-30T10:28:37.328Z,12.15
2017-09-30T10:31:04.880Z,12.57
2017-09-30T10:33:32.541Z,12.43
2017-09-30T10:36:00.305Z,13.00
2017-09-30T10:38:27.986Z,13.10
2017-09-30T10:40:55.852Z,12.70
2017-09-30T10:43:23.395Z,13.90
2017-09-30T10:45:50.903Z,12.90
2017-09-30T10:48:18.637Z,14.35
2017-09-30T10:50:46.149Z,13.10
2017-09-30T10:53:15.345Z,14.40
2017-09-30T10:55:43.672Z,12.73
2017-09-30T10:58:11.178Z,15.57
2017-09-30T11:00:40.379Z,15.83
2017-09-30T11:03:07.924Z,12.45
2017-09-30T11:05:36.198Z,13.83
2017-09-30T11:08:16.299Z,14.43
2017-09-30T11:10:43.855Z,13.90
2017-09-30T11:13:11.384Z,13.52
2017-09-30T11:15:38.939Z,13.80
2017-09-30T11:18:06.740Z,13.03
2017-09-30T11:20:35.167Z,12.17
2017-09-30T11:23:02.675Z,12.65
2017-09-30T11:25:30.251Z,13.55
2017-09-30T11:27:57.809Z,14.00
2017-09-30T11:30:25.334Z,15.40
2017-09-30T11:32:52.835Z,14.20
2017-09-30T11:35:20.385Z,13.80
2017-09-30T11:37:47.899Z,12.33
2017-09-30T11:40:15.691Z,13.43
2017-09-30T11:42:43.683Z,14.60
2017-09-30T11:45:11.219Z,12.30
2017-09-30T11:47:38.767Z,13.67
2017-09-30T11:50:06.289Z,12.60
2017-09-30T11:52:33.867Z,15.00
2017-09-30T11:55:01.371Z,14.57
2017-09-30T11:57:28.926Z,14.83
2017-09-30T11:59:56.525Z,13.27
2017-09-30T12:02:24.088Z,12.95
2017-09-30T12:04:52.223Z,14.50
2017-09-30T12:07:19.971Z,13.80
2017-09-30T12:09:47.490Z,13.52
2017-09-30T12:12:15.091Z,12.32
2017-09-30T12:14:42.650Z,14.10
2017-09-30T12:17:11.847Z,13.32
2017-09-30T12:19:39.606Z,14.20
2017-09-30T12:22:07.383Z,11.70
2017-09-30T12:24:36.210Z,13.00
2017-09-30T12:27:03.831Z,12.03
2017-09-30T12:29:31.386Z,10.98
2017-09-30T12:31:58.889Z,12.15
2017-09-30T12:34:26.401Z,11.60
2017-09-30T12:36:54.866Z,12.45
2017-09-30T12:39:22.382Z,11.07
2017-09-30T12:41:49.923Z,11.48
2017-09-30T12:44:18.418Z,12.10
2017-09-30T12:46:45.927Z,11.20
2017-09-30T12:49:14.026Z,10.56
2017-09-30T12:51:41.542Z,12.87
2017-09-30T12:54:12.913Z,11.12
2017-09-30T12:56:40.473Z,11.43
2017-09-30T12:59:08.703Z,11.35
2017-09-30T13:01:36.206Z,11.88
2017-09-30T13:04:03.716Z,11.60
2017-09-30T13:06:32.171Z,10.77
2017-09-30T13:08:59.712Z,10.77
2017-09-30T13:11:27.995Z,11.27
2017-09-30T13:13:55.748Z,9.67
2017-09-30T13:16:23.268Z,10.80
2017-09-30T13:18:50.775Z,9.43
2017-09-30T13:21:18.330Z,11.80
2017-09-30T13:23:46.088Z,10.03
2017-09-30T13:26:13.852Z,9.40
2017-09-30T13:28:42.333Z,10.75
2017-09-30T13:31:09.842Z,11.05
2017-09-30T13:33:37.375Z,10.10
2017-09-30T13:36:04.942Z,10.67
2017-09-30T13:38:32.487Z,9.57
2017-09-30T13:41:00.919Z,10.27
2017-09-30T13:43:28.422Z,11.40
2017-09-30T13:45:55.965Z,9.80
2017-09-30T13:48:23.832Z,10.60
2017-09-30T13:50:51.372Z,10.33
2017-09-30T13:53:19.811Z,10.20
2017-09-30T13:55:48.884Z,10.90
2017-09-30T13:58:16.431Z,9.75
2017-09-30T14:00:45.625Z,11.37
2017-09-30T14:03:13.381Z,11.40
2017-09-30T14:05:40.896Z,11.00
2017-09-30T14:08:09.489Z,10.30
2017-09-30T14:10:40.675Z,10.50
2017-09-30T14:13:08.178Z,9.13
2017-09-30T14:15:35.732Z,10.70
2017-09-30T14:18:04.271Z,8.35
2017-09-30T14:20:32.029Z,9.25
2017-09-30T14:22:59.714Z,10.32
2017-09-30T14:25:32.161Z,9.87
2017-09-30T14:27:59.705Z,8.80
2017-09-30T14:30:27.983Z,10.50
2017-09-30T14:32:55.515Z,9.33
2017-09-30T14:35:23.023Z,9.80
2017-09-30T14:37:50.568Z,9.63
2017-09-30T14:40:19.384Z,9.93
2017-09-30T14:42:46.891Z,8.83
2017-09-30T14:45:15.854Z,9.07
2017-09-30T14:47:43.588Z,8.63
2017-09-30T14:50:11.090Z,9.15
2017-09-30T14:52:38.663Z,8.98
2017-09-30T14:55:06.206Z,8.90
2017-09-30T14:57:33.741Z,8.20
2017-09-30T15:00:04.546Z,7.50
2017-09-30T15:02:32.615Z,7.27
2017-09-30T15:05:00.115Z,7.33
2017-09-30T15:07:28.592Z,13.20
2017-09-30T15:09:57.528Z,7.62
2017-09-30T15:12:33.196Z,6.90
2017-09-30T15:15:00.708Z,7.50
2017-09-30T15:17:28.340Z,6.78
2017-09-30T15:19:55.862Z,7.62
2017-09-30T15:22:23.391Z,6.60
2017-09-30T15:24:50.938Z,8.00
2017-09-30T15:27:18.463Z,7.40
2017-09-30T15:29:46.741Z,7.50
2017-09-30T15:32:14.266Z,7.97
2017-09-30T15:34:41.782Z,7.93
2017-09-30T15:37:09.316Z,7.70
2017-09-30T15:39:36.851Z,8.75
2017-09-30T15:42:06.044Z,6.40
2017-09-30T15:44:33.669Z,7.50
2017-09-30T15:47:01.540Z,6.85
2017-09-30T15:49:29.059Z,7.97
2017-09-30T15:51:56.589Z,7.07
2017-09-30T15:54:24.942Z,9.02
2017-09-30T15:56:52.915Z,9.05
2017-09-30T15:59:23.802Z,7.90
2017-09-30T16:01:51.308Z,7.57
2017-09-30T16:04:18.862Z,7.53
2017-09-30T16:06:47.319Z,7.65
2017-09-30T16:09:15.152Z,8.17
2017-09-30T16:11:42.666Z,8.07
2017-09-30T16:14:14.716Z,8.57
2017-09-30T16:16:42.441Z,9.52
2017-09-30T16:19:09.994Z,9.30
2017-09-30T16:21:37.546Z,10.80
2017-09-30T16:24:05.102Z,9.50
2017-09-30T16:26:32.890Z,11.57
2017-09-30T16:29:00.396Z,8.90
2017-09-30T16:31:28.684Z,11.15
2017-09-30T16:33:56.289Z,10.70
2017-09-30T16:36:23.826Z,8.90
2017-09-30T16:38:51.382Z,10.15
2017-09-30T16:41:19.171Z,10.50
2017-09-30T16:43:50.924Z,9.80
2017-09-30T16:46:18.434Z,9.63
2017-09-30T16:48:45.996Z,10.32
2017-09-30T16:51:13.911Z,10.20
2017-09-30T16:53:41.426Z,10.43
2017-09-30T16:56:08.979Z,9.57
2017-09-30T16:58:37.943Z,10.10
2017-09-30T17:01:05.479Z,9.73
2017-09-30T17:03:33.006Z,10.03
2017-09-30T17:06:00.806Z,11.43
2017-09-30T17:08:28.355Z,9.03
2017-09-30T17:10:56.367Z,10.27
2017-09-30T17:13:23.914Z,9.93
2017-09-30T17:15:51.467Z,9.33
2017-09-30T17:18:18.991Z,11.33
2017-09-30T17:20:46.503Z,11.00
2017-09-30T17:23:14.048Z,9.87
2017-09-30T17:25:42.510Z,9.33
2017-09-30T17:28:10.019Z,11.17
2017-09-30T17:30:37.887Z,10.30
2017-09-30T17:33:05.443Z,11.00
2017-09-30T17:35:32.959Z,12.40
2017-09-30T17:38:00.481Z,11.27
2017-09-30T17:40:28.023Z,11.65
2017-09-30T17:42:55.566Z,11.93
2017-09-30T17:45:23.704Z,11.15
2017-09-30T17:47:51.527Z,10.10
2017-09-30T17:50:19.099Z,10.80
2017-09-30T17:52:48.345Z,10.55
2017-09-30T17:55:15.885Z,10.70
2017-09-30T17:57:43.650Z,13.13
2017-09-30T18:00:11.250Z,14.37
2017-09-30T18:02:38.951Z,12.67
2017-09-30T18:05:07.219Z,13.07
2017-09-30T18:07:35.551Z,12.52
2017-09-30T18:10:03.068Z,12.17
2017-09-30T18:12:30.617Z,12.30
2017-09-30T18:15:02.810Z,12.07
2017-09-30T18:17:30.352Z,11.43
2017-09-30T18:19:58.037Z,12.80
2017-09-30T18:22:25.593Z,12.20
2017-09-30T18:24:53.099Z,12.33
2017-09-30T18:27:21.736Z,12.70
2017-09-30T18:29:54.012Z,13.63
2017-09-30T18:32:22.771Z,14.23
2017-09-30T18:34:51.999Z,13.50
2017-09-30T18:37:19.523Z,12.87
2017-09-30T18:39:48.362Z,12.05
2017-09-30T18:42:16.837Z,13.45
2017-09-30T18:44:48.699Z,13.03
2017-09-30T18:47:16.331Z,13.52
2017-09-30T18:49:44.695Z,13.97
2017-09-30T18:52:12.248Z,12.50
2017-09-30T18:54:40.531Z,12.97
2017-09-30T18:57:08.074Z,14.87
2017-09-30T18:59:36.351Z,14.25
2017-09-30T19:02:03.911Z,13.47
2017-09-30T19:04:32.203Z,13.73
2017-09-30T19:06:59.759Z,11.40
2017-09-30T19:09:28.071Z,11.03
2017-09-30T19:11:55.610Z,12.95
2017-09-30T19:14:23.239Z,11.40
2017-09-30T19:16:50.795Z,13.20
2017-09-30T19:19:18.316Z,10.80
2017-09-30T19:21:45.955Z,9.83
2017-09-30T19:24:15.182Z,10.13
2017-09-30T19:26:42.773Z,11.00
2017-09-30T19:29:10.326Z,10.87
2017-09-30T19:31:37.943Z,10.88
2017-09-30T19:34:05.450Z,10.98
2017-09-30T19:36:33.004Z,11.18
2017-09-30T19:39:01.470Z,11.47
2017-09-30T19:41:29.017Z,11.23
2017-09-30T19:43:56.523Z,10.63
2017-09-30T19:46:28.219Z,9.63
2017-09-30T19:48:55.723Z,9.90
2017-09-30T19:51:23.484Z,9.65
2017-09-30T19:53:51.094Z,9.97
2017-09-30T19:56:18.595Z,8.90
2017-09-30T19:58:46.150Z,7.67
2017-09-30T20:01:17.558Z,8.88
2017-09-30T20:03:48.174Z,9.10
2017-09-30T20:06:15.704Z,7.90
2017-09-30T20:08:43.331Z,7.20
2017-09-30T20:11:11.113Z,10.13
2017-09-30T20:13:38.633Z,8.97
2017-09-30T20:16:06.312Z,10.03
2017-09-30T20:18:37.655Z,10.43
2017-09-30T20:21:05.516Z,11.45
2017-09-30T20:23:33.029Z,11.73
2017-09-30T20:26:01.335Z,10.95
2017-09-30T20:28:29.119Z,12.40
2017-09-30T20:30:57.811Z,11.15
2017-09-30T20:33:28.499Z,10.70
2017-09-30T20:35:56.059Z,11.07
2017-09-30T20:38:23.571Z,8.32
2017-09-30T20:40:51.999Z,9.77
2017-09-30T20:43:20.305Z,9.37
2017-09-30T20:45:47.807Z,9.57
2017-09-30T20:48:18.293Z,7.80
2017-09-30T20:50:46.239Z,8.20
2017-09-30T20:53:13.754Z,9.33
2017-09-30T20:55:41.491Z,8.73
2017-09-30T20:58:09.002Z,7.90
2017-09-30T21:00:37.062Z,9.73
2017-09-30T21:03:04.573Z,9.60
2017-09-30T21:05:32.143Z,8.80
2017-09-30T21:08:00.351Z,8.43
2017-09-30T21:10:27.865Z,8.60
2017-09-30T21:12:55.425Z,9.03
2017-09-30T21:15:23.494Z,10.80
2017-09-30T21:17:51.030Z,11.32
2017-09-30T21:20:23.939Z,11.68
2017-09-30T21:22:51.440Z,12.93
2017-09-30T21:25:19.923Z,10.45
2017-09-30T21:27:47.537Z,12.57
2017-09-30T21:30:15.079Z,11.37
2017-09-30T21:32:46.030Z,9.90
2017-09-30T21:35:13.562Z,10.77
2017-09-30T21:37:41.973Z,10.30
2017-09-30T21:40:09.937Z,10.30
2017-09-30T21:42:37.459Z,10.40
2017-09-30T21:45:05.757Z,9.50
2017-09-30T21:47:34.279Z,8.98
2017-09-30T21:50:01.815Z,7.80
2017-09-30T21:52:29.336Z,7.80
2017-09-30T21:54:56.887Z,8.80
2017-09-30T21:57:25.233Z,9.07
2017-09-30T21:59:53.078Z,8.50
2017-09-30T22:02:20.582Z,8.70
2017-09-30T22:04:53.416Z,8.40
2017-09-30T22:07:21.058Z,8.70
2017-09-30T22:09:48.585Z,9.70
2017-09-30T22:12:16.141Z,8.30
2017-09-30T22:14:43.951Z,9.40
2017-09-30T22:17:11.462Z,10.50
2017-09-30T22:19:43.383Z,9.50
2017-09-30T22:22:10.921Z,8.43
2017-09-30T22:24:39.197Z,8.05
2017-09-30T22:27:06.751Z,9.40
2017-09-30T22:29:35.024Z,8.80
2017-09-30T22:32:02.527Z,8.85
2017-09-30T22:34:34.359Z,9.27
2017-09-30T22:37:02.825Z,8.17
2017-09-30T22:39:30.384Z,9.70
2017-09-30T22:41:58.825Z,8.30
2017-09-30T22:44:26.346Z,6.90
2017-09-30T22:46:53.918Z,7.22
2017-09-30T22:49:21.820Z,6.03
2017-09-30T22:51:49.372Z,7.28
2017-09-30T22:54:16.894Z,8.10
2017-09-30T22:56:44.615Z,7.50
2017-09-30T22:59:12.187Z,6.67
2017-09-30T23:01:39.698Z,6.55
2017-09-30T23:04:11.123Z,6.80
2017-09-30T23:06:38.687Z,7.47
2017-09-30T23:09:06.244Z,7.55
2017-09-30T23:11:33.748Z,8.27
2017-09-30T23:14:02.791Z,6.50
2017-09-30T23:16:30.606Z,7.20
2017-09-30T23:18:58.113Z,7.07
2017-09-30T23:21:25.741Z,7.07
2017-09-30T23:23:53.287Z,7.27
2017-09-30T23:26:20.791Z,6.47
2017-09-30T23:28:50.039Z,7.20
2017-09-30T23:31:17.595Z,7.63
2017-09-30T23:33:45.095Z,7.00
2017-09-30T23:36:12.654Z,8.43
2017-09-30T23:38:40.205Z,6.28
2017-09-30T23:41:09.447Z,6.07
2017-09-30T23:43:36.993Z,6.90
2017-09-30T23:46:04.550Z,6.53
2017-09-30T23:48:32.051Z,5.37
2017-09-30T23:50:59.586Z,6.05
2017-09-30T23:53:27.822Z,6.90
2017-09-30T23:55:55.383Z,5.30
2017-09-30T23:58:22.883Z,6.77
